createdAt,value
2023-03-08T00:01:41.498Z,4.77
2023-03-08T00:04:13.927Z,2.50
2023-03-08T00:06:43.020Z,2.03
2023-03-08T00:09:12.021Z,3.47
2023-03-08T00:11:41.006Z,1.77
2023-03-08T00:14:10.093Z,3.90
2023-03-08T00:16:39.123Z,1.33
2023-03-08T00:19:08.176Z,2.40
2023-03-08T00:21:38.578Z,0.53
2023-03-08T00:24:07.849Z,1.73
2023-03-08T00:26:36.872Z,2.07
2023-03-08T00:29:06.462Z,4.47
2023-03-08T00:31:35.597Z,4.00
2023-03-08T00:34:04.767Z,5.47
2023-03-08T00:36:33.842Z,2.13
2023-03-08T00:39:04.230Z,1.20
2023-03-08T00:41:33.279Z,1.37
2023-03-08T00:44:02.373Z,2.60
2023-03-08T00:46:31.536Z,7.33
2023-03-08T00:49:00.694Z,3.27
2023-03-08T00:51:29.768Z,0.67
2023-03-08T00:53:58.812Z,3.43
2023-03-08T00:56:29.235Z,4.10
2023-03-08T00:58:59.215Z,1.80
2023-03-08T01:01:28.344Z,1.63
2023-03-08T01:03:57.471Z,2.70
2023-03-08T01:06:26.703Z,3.33
2023-03-08T01:08:55.754Z,1.77
2023-03-08T01:11:28.589Z,3.10
2023-03-08T01:13:57.677Z,1.37
2023-03-08T01:16:29.626Z,1.77
2023-03-08T01:19:01.076Z,2.70
2023-03-08T01:21:32.454Z,2.13
2023-03-08T01:24:01.701Z,1.43
2023-03-08T01:26:32.112Z,0.87
2023-03-08T01:29:01.500Z,4.60
2023-03-08T01:31:31.831Z,1.30
2023-03-08T01:34:02.326Z,1.10
2023-03-08T01:36:31.368Z,1.33
2023-03-08T01:39:02.267Z,1.50
2023-03-08T01:41:33.506Z,2.27
2023-03-08T01:44:03.574Z,1.97
2023-03-08T01:46:33.578Z,2.07
2023-03-08T01:49:12.302Z,1.10
2023-03-08T01:51:44.076Z,1.40
2023-03-08T01:54:17.092Z,2.50
2023-03-08T01:56:50.258Z,0.80
2023-03-08T01:59:21.926Z,2.50
2023-03-08T02:01:51.375Z,1.13
2023-03-08T02:04:21.591Z,5.30
2023-03-08T02:06:50.707Z,1.50
2023-03-08T02:09:23.915Z,3.27
2023-03-08T02:12:00.101Z,2.70
2023-03-08T02:14:30.071Z,4.63
2023-03-08T02:16:59.403Z,5.23
2023-03-08T02:19:35.074Z,1.47
2023-03-08T02:22:10.835Z,9.97
2023-03-08T02:24:43.038Z,2.33
2023-03-08T02:27:18.736Z,2.10
2023-03-08T02:29:48.241Z,3.77
2023-03-08T02:32:18.377Z,3.73
2023-03-08T02:34:47.432Z,2.13
2023-03-08T02:37:16.478Z,2.83
2023-03-08T02:39:46.837Z,5.10
2023-03-08T02:42:15.936Z,4.93
2023-03-08T02:44:45.384Z,3.07
2023-03-08T02:47:14.584Z,2.03
2023-03-08T02:49:43.593Z,1.83
2023-03-08T02:52:13.803Z,15.57
2023-03-08T02:54:42.916Z,2.33
2023-03-08T02:57:13.348Z,2.90
2023-03-08T02:59:42.401Z,3.80
2023-03-08T03:02:12.259Z,3.93
2023-03-08T03:04:41.299Z,3.77
2023-03-08T03:07:10.381Z,1.60
2023-03-08T03:09:40.116Z,6.57
2023-03-08T03:12:09.656Z,3.77
2023-03-08T03:14:43.360Z,2.70
2023-03-08T03:17:12.451Z,3.77
2023-03-08T03:19:41.656Z,3.10
2023-03-08T03:22:10.683Z,5.37
2023-03-08T03:24:39.768Z,13.97
2023-03-08T03:27:09.952Z,12.47
2023-03-08T03:29:42.288Z,9.93
2023-03-08T03:32:17.388Z,4.07
2023-03-08T03:34:46.509Z,4.70
2023-03-08T03:37:16.977Z,9.23
2023-03-08T03:39:47.156Z,6.03
2023-03-08T03:42:19.808Z,3.53
2023-03-08T03:45:06.335Z,3.43
2023-03-08T03:47:35.793Z,5.83
2023-03-08T03:50:08.221Z,4.07
2023-03-08T03:52:48.372Z,2.63
2023-03-08T03:55:17.431Z,4.33
2023-03-08T03:57:47.304Z,4.53
2023-03-08T04:00:22.177Z,11.93
2023-03-08T04:03:01.081Z,8.73
2023-03-08T04:05:32.118Z,4.80
2023-03-08T04:08:01.267Z,4.87
2023-03-08T04:10:33.566Z,7.20
2023-03-08T04:13:02.984Z,4.43
2023-03-08T04:15:33.465Z,5.43
2023-03-08T04:18:06.049Z,5.93
2023-03-08T04:20:36.857Z,5.10
2023-03-08T04:23:06.835Z,4.07
2023-03-08T04:25:41.084Z,4.17
2023-03-08T04:28:12.476Z,5.97
2023-03-08T04:30:44.759Z,4.97
2023-03-08T04:33:15.250Z,10.33
2023-03-08T04:35:49.304Z,6.97
2023-03-08T04:38:20.727Z,5.13
2023-03-08T04:41:10.249Z,5.07
2023-03-08T04:43:51.065Z,14.10
2023-03-08T04:46:26.981Z,5.00
2023-03-08T04:48:56.460Z,7.57
2023-03-08T04:51:28.792Z,6.17
2023-03-08T04:54:01.002Z,7.93
2023-03-08T04:56:30.848Z,8.07
2023-03-08T04:59:01.476Z,6.43
2023-03-08T05:01:32.176Z,4.70
2023-03-08T05:04:01.662Z,7.03
2023-03-08T05:06:36.946Z,6.03
2023-03-08T05:09:06.987Z,6.50
2023-03-08T05:11:37.982Z,5.03
2023-03-08T05:14:07.463Z,7.47
2023-03-08T05:16:38.105Z,4.37
2023-03-08T05:19:07.199Z,5.00
2023-03-08T05:21:41.804Z,4.97
2023-03-08T05:24:10.969Z,6.07
2023-03-08T05:26:41.039Z,3.50
2023-03-08T05:29:11.798Z,4.90
2023-03-08T05:31:45.376Z,3.50
2023-03-08T05:34:15.737Z,6.50
2023-03-08T05:36:48.714Z,7.70
2023-03-08T05:39:17.831Z,7.60
2023-03-08T05:41:59.202Z,7.07
2023-03-08T05:44:32.798Z,9.40
2023-03-08T05:47:03.791Z,8.13
2023-03-08T05:49:33.031Z,8.07
2023-03-08T05:52:02.779Z,8.97
2023-03-08T05:54:31.975Z,10.77
2023-03-08T05:57:05.727Z,10.60
2023-03-08T05:59:35.514Z,9.57
2023-03-08T06:02:07.634Z,8.53
2023-03-08T06:04:41.660Z,13.47
2023-03-08T06:07:12.499Z,10.47
2023-03-08T06:09:46.148Z,9.23
2023-03-08T06:12:17.789Z,10.43
2023-03-08T06:14:49.947Z,10.03
2023-03-08T06:17:22.928Z,10.17
2023-03-08T06:19:53.452Z,10.30
2023-03-08T06:22:22.577Z,10.13
2023-03-08T06:24:51.619Z,8.83
2023-03-08T06:27:27.705Z,8.87
2023-03-08T06:29:59.132Z,8.80
2023-03-08T06:32:30.193Z,9.13
2023-03-08T06:34:59.353Z,7.23
2023-03-08T06:37:32.724Z,8.00
2023-03-08T06:40:03.902Z,6.23
2023-03-08T06:42:41.148Z,6.47
2023-03-08T06:45:13.706Z,11.57
2023-03-08T06:47:44.089Z,6.17
2023-03-08T06:50:14.712Z,6.53
2023-03-08T06:52:46.860Z,4.37
2023-03-08T06:55:17.874Z,8.47
2023-03-08T06:57:47.785Z,5.83
2023-03-08T07:00:17.439Z,6.83
2023-03-08T07:02:48.619Z,5.93
2023-03-08T07:05:18.194Z,12.27
2023-03-08T07:07:47.352Z,9.27
2023-03-08T07:10:19.432Z,8.83
2023-03-08T07:12:51.256Z,10.37
2023-03-08T07:15:23.272Z,14.27
2023-03-08T07:17:55.982Z,10.57
2023-03-08T07:20:27.438Z,10.30
2023-03-08T07:22:57.355Z,8.77
2023-03-08T07:25:26.406Z,11.33
2023-03-08T07:27:55.454Z,17.67
2023-03-08T07:30:24.554Z,8.97
2023-03-08T07:32:55.982Z,5.80
2023-03-08T07:35:25.031Z,7.77
2023-03-08T07:37:54.176Z,10.93
2023-03-08T07:40:23.607Z,8.37
2023-03-08T07:42:52.761Z,6.67
2023-03-08T07:45:40.286Z,6.03
2023-03-08T07:48:10.651Z,9.17
2023-03-08T07:50:39.753Z,6.87
2023-03-08T07:53:08.885Z,8.37
2023-03-08T07:55:39.040Z,8.43
2023-03-08T07:58:08.141Z,7.73
2023-03-08T08:00:37.216Z,6.20
2023-03-08T08:03:06.317Z,3.83
2023-03-08T08:05:38.302Z,4.87
2023-03-08T08:08:07.509Z,9.30
2023-03-08T08:10:36.650Z,4.87
2023-03-08T08:13:05.738Z,6.77
2023-03-08T08:15:34.914Z,8.83
2023-03-08T08:18:04.124Z,5.33
2023-03-08T08:20:33.187Z,6.50
2023-03-08T08:23:06.429Z,8.00
2023-03-08T08:25:35.539Z,7.90
2023-03-08T08:28:04.606Z,6.83
2023-03-08T08:30:33.696Z,10.70
2023-03-08T08:33:03.478Z,8.30
2023-03-08T08:35:42.684Z,9.10
2023-03-08T08:38:13.907Z,12.60
2023-03-08T08:40:43.043Z,12.57
2023-03-08T08:43:12.131Z,11.73
2023-03-08T08:45:45.392Z,10.93
2023-03-08T08:48:14.965Z,11.40
2023-03-08T08:50:44.680Z,10.43
2023-03-08T08:53:15.232Z,11.57
2023-03-08T08:55:45.637Z,12.53
2023-03-08T08:58:15.577Z,12.00
2023-03-08T09:00:44.691Z,8.23
2023-03-08T09:03:13.739Z,11.23
2023-03-08T09:05:45.404Z,10.43
2023-03-08T09:08:15.970Z,14.23
2023-03-08T09:10:44.968Z,10.63
2023-03-08T09:13:14.593Z,11.20
2023-03-08T09:15:43.684Z,11.80
2023-03-08T09:18:12.676Z,14.10
2023-03-08T09:20:41.955Z,12.47
2023-03-08T09:23:11.157Z,16.43
2023-03-08T09:25:41.529Z,11.63
2023-03-08T09:28:11.724Z,12.97
2023-03-08T09:30:40.777Z,13.90
2023-03-08T09:33:09.765Z,14.80
2023-03-08T09:35:38.804Z,14.27
2023-03-08T09:38:07.865Z,13.30
2023-03-08T09:40:47.049Z,11.83
2023-03-08T09:43:29.787Z,14.70
2023-03-08T09:45:58.853Z,14.27
2023-03-08T09:48:31.156Z,12.37
2023-03-08T09:51:04.678Z,12.07
2023-03-08T09:53:40.706Z,11.70
2023-03-08T09:56:17.788Z,13.47
2023-03-08T09:58:51.531Z,14.13
2023-03-08T10:01:28.443Z,15.20
2023-03-08T10:04:15.318Z,10.37
2023-03-08T10:06:52.197Z,12.10
2023-03-08T10:09:31.263Z,11.50
2023-03-08T10:12:13.527Z,12.87
2023-03-08T10:14:49.145Z,11.47
2023-03-08T10:17:21.751Z,17.40
2023-03-08T10:19:56.613Z,11.57
2023-03-08T10:22:29.983Z,13.33
2023-03-08T10:25:03.251Z,16.10
2023-03-08T10:27:36.477Z,11.47
2023-03-08T10:30:15.071Z,7.10
2023-03-08T10:32:46.303Z,9.30
2023-03-08T10:35:15.803Z,10.37
2023-03-08T10:37:50.942Z,13.70
2023-03-08T10:40:22.759Z,7.17
2023-03-08T10:42:57.256Z,11.67
2023-03-08T10:45:27.874Z,11.73
2023-03-08T10:47:59.045Z,9.57
2023-03-08T10:50:29.971Z,9.07
2023-03-08T10:53:10.681Z,9.10
2023-03-08T10:55:46.916Z,9.97
2023-03-08T10:58:35.940Z,10.70
2023-03-08T11:01:07.425Z,8.83
2023-03-08T11:03:36.642Z,10.37
2023-03-08T11:06:14.616Z,11.93
2023-03-08T11:08:55.888Z,12.30
2023-03-08T11:11:25.202Z,11.43
2023-03-08T11:13:56.438Z,10.73
2023-03-08T11:16:49.366Z,12.07
2023-03-08T11:19:33.281Z,10.13
2023-03-08T11:22:14.058Z,10.07
2023-03-08T11:25:01.996Z,6.70
2023-03-08T11:27:46.434Z,5.67
2023-03-08T11:30:28.395Z,7.50
2023-03-08T11:33:22.185Z,6.20
2023-03-08T11:35:58.029Z,11.43
2023-03-08T11:38:28.922Z,8.50
2023-03-08T11:41:07.660Z,8.33
2023-03-08T11:43:53.059Z,8.40
2023-03-08T11:46:28.853Z,14.90
2023-03-08T11:49:21.727Z,9.27
2023-03-08T11:51:58.277Z,8.77
2023-03-08T11:54:44.709Z,8.43
2023-03-08T11:57:17.318Z,8.23
2023-03-08T11:59:51.769Z,8.77
2023-03-08T12:02:26.899Z,8.13
2023-03-08T12:05:03.931Z,7.53
2023-03-08T12:07:38.528Z,7.33
2023-03-08T12:10:21.083Z,6.30
2023-03-08T12:12:54.878Z,7.53
2023-03-08T12:15:31.183Z,7.73
2023-03-08T12:18:11.703Z,13.13
2023-03-08T12:20:44.051Z,5.87
2023-03-08T12:23:24.850Z,8.77
2023-03-08T12:26:01.790Z,7.57
2023-03-08T12:28:35.700Z,6.00
2023-03-08T12:31:27.505Z,6.67
2023-03-08T12:34:01.149Z,6.70
2023-03-08T12:36:41.580Z,7.00
2023-03-08T12:39:26.628Z,5.83
2023-03-08T12:42:14.276Z,4.03
2023-03-08T12:44:44.198Z,5.43
2023-03-08T12:47:23.167Z,7.60
2023-03-08T12:49:57.036Z,9.07
2023-03-08T12:52:33.223Z,4.23
2023-03-08T12:55:06.684Z,5.00
2023-03-08T12:57:42.810Z,3.90
2023-03-08T13:00:31.116Z,7.10
2023-03-08T13:03:02.862Z,5.07
2023-03-08T13:05:35.645Z,10.90
2023-03-08T13:08:20.020Z,3.13
2023-03-08T13:11:04.926Z,3.93
2023-03-08T13:13:42.320Z,5.83
2023-03-08T13:16:39.017Z,5.30
2023-03-08T13:19:22.206Z,5.60
2023-03-08T13:22:00.013Z,6.97
2023-03-08T13:24:39.882Z,7.40
2023-03-08T13:27:26.108Z,10.33
2023-03-08T13:29:55.665Z,6.50
2023-03-08T13:32:26.183Z,7.47
2023-03-08T13:35:00.673Z,6.67
2023-03-08T13:37:32.109Z,6.40
2023-03-08T13:40:02.172Z,7.73
2023-03-08T13:42:31.203Z,6.17
2023-03-08T13:45:17.125Z,6.43
2023-03-08T13:47:47.237Z,6.80
2023-03-08T13:50:24.720Z,9.27
2023-03-08T13:52:55.317Z,6.33
2023-03-08T13:55:31.475Z,6.57
2023-03-08T13:58:01.716Z,9.47
2023-03-08T14:00:32.706Z,7.50
2023-03-08T14:03:04.015Z,8.83
2023-03-08T14:05:40.819Z,7.40
2023-03-08T14:08:21.390Z,6.20
2023-03-08T14:10:54.872Z,6.37
2023-03-08T14:13:28.462Z,7.53
2023-03-08T14:15:59.773Z,8.43
2023-03-08T14:18:32.643Z,7.87
2023-03-08T14:21:07.357Z,6.80
2023-03-08T14:23:42.312Z,9.50
2023-03-08T14:26:30.071Z,7.57
2023-03-08T14:29:19.801Z,6.37
2023-03-08T14:32:01.532Z,8.20
2023-03-08T14:34:33.938Z,8.43
2023-03-08T14:37:06.386Z,8.03
2023-03-08T14:39:38.967Z,7.30
2023-03-08T14:42:17.931Z,6.77
2023-03-08T14:44:53.369Z,13.40
2023-03-08T14:47:25.377Z,5.90
2023-03-08T14:50:00.876Z,7.90
2023-03-08T14:52:31.227Z,6.80
2023-03-08T14:55:03.496Z,7.83
2023-03-08T14:57:32.826Z,7.97
2023-03-08T15:00:13.948Z,8.30
2023-03-08T15:02:43.341Z,8.00
2023-03-08T15:05:28.031Z,6.13
2023-03-08T15:08:00.051Z,7.10
2023-03-08T15:10:32.845Z,7.27
2023-03-08T15:13:02.202Z,6.40
2023-03-08T15:15:31.265Z,6.90
2023-03-08T15:18:00.284Z,8.03
2023-03-08T15:20:29.351Z,5.17
2023-03-08T15:23:02.276Z,8.80
2023-03-08T15:25:35.552Z,5.43
2023-03-08T15:28:06.000Z,5.87
2023-03-08T15:30:35.307Z,6.27
2023-03-08T15:33:04.390Z,11.17
2023-03-08T15:35:33.574Z,5.83
2023-03-08T15:38:02.667Z,10.17
2023-03-08T15:40:34.426Z,5.57
2023-03-08T15:43:03.966Z,3.70
2023-03-08T15:45:32.979Z,5.60
2023-03-08T15:48:03.398Z,6.30
2023-03-08T15:50:34.455Z,6.33
2023-03-08T15:53:04.030Z,6.40
2023-03-08T15:55:34.553Z,6.23
2023-03-08T15:58:03.560Z,6.17
2023-03-08T16:00:32.943Z,5.27
2023-03-08T16:03:02.164Z,5.73
2023-03-08T16:05:32.793Z,7.57
2023-03-08T16:08:03.556Z,4.43
2023-03-08T16:10:40.320Z,5.53
2023-03-08T16:13:09.552Z,5.20
2023-03-08T16:15:41.143Z,8.77
2023-03-08T16:18:10.267Z,3.93
2023-03-08T16:20:41.534Z,4.50
2023-03-08T16:23:10.872Z,2.77
2023-03-08T16:25:43.144Z,15.77
2023-03-08T16:28:12.690Z,4.53
2023-03-08T16:30:42.783Z,5.70
2023-03-08T16:33:11.788Z,5.97
2023-03-08T16:35:41.792Z,5.07
2023-03-08T16:38:11.220Z,4.97
2023-03-08T16:40:41.634Z,4.53
2023-03-08T16:43:10.715Z,3.03
2023-03-08T16:45:52.878Z,5.63
2023-03-08T16:48:22.430Z,6.00
2023-03-08T16:50:53.044Z,2.27
2023-03-08T16:53:22.184Z,3.57
2023-03-08T16:55:53.450Z,3.67
2023-03-08T16:58:22.865Z,1.97
2023-03-08T17:00:52.382Z,2.93
2023-03-08T17:03:23.500Z,2.80
2023-03-08T17:05:52.530Z,2.57
2023-03-08T17:08:21.517Z,2.60
2023-03-08T17:10:51.945Z,5.27
2023-03-08T17:13:20.959Z,2.33
2023-03-08T17:15:50.875Z,3.10
2023-03-08T17:18:19.900Z,3.37
2023-03-08T17:20:49.472Z,2.23
2023-03-08T17:23:19.648Z,3.90
2023-03-08T17:25:48.675Z,3.00
2023-03-08T17:28:19.123Z,3.80
2023-03-08T17:30:48.163Z,3.57
2023-03-08T17:33:17.616Z,2.40
2023-03-08T17:35:46.662Z,4.37
2023-03-08T17:38:15.694Z,5.63
2023-03-08T17:40:44.724Z,4.20
2023-03-08T17:43:14.121Z,5.67
2023-03-08T17:45:45.624Z,3.97
2023-03-08T17:48:14.608Z,4.10
2023-03-08T17:50:43.679Z,3.73
2023-03-08T17:53:13.106Z,6.17
2023-03-08T17:55:42.300Z,8.13
2023-03-08T17:58:11.531Z,5.23
2023-03-08T18:00:40.537Z,7.10
2023-03-08T18:03:10.924Z,7.17
2023-03-08T18:05:47.524Z,6.50
2023-03-08T18:08:16.528Z,17.30
2023-03-08T18:10:45.774Z,12.33
2023-03-08T18:13:14.846Z,9.07
2023-03-08T18:15:43.882Z,9.20
2023-03-08T18:18:14.377Z,6.27
2023-03-08T18:20:43.631Z,6.03
2023-03-08T18:23:13.544Z,10.00
2023-03-08T18:25:42.686Z,6.20
2023-03-08T18:28:11.915Z,8.83
2023-03-08T18:30:40.967Z,7.57
2023-03-08T18:33:10.057Z,13.87
2023-03-08T18:35:40.541Z,9.40
2023-03-08T18:38:09.523Z,7.77
2023-03-08T18:40:38.573Z,7.87
2023-03-08T18:43:07.579Z,6.87
2023-03-08T18:45:36.595Z,10.37
2023-03-08T18:48:05.625Z,6.37
2023-03-08T18:50:34.702Z,9.70
2023-03-08T18:53:05.139Z,12.63
2023-03-08T18:55:34.155Z,9.40
2023-03-08T18:58:03.175Z,13.03
2023-03-08T19:00:32.725Z,8.03
2023-03-08T19:03:01.910Z,6.97
2023-03-08T19:05:30.939Z,10.77
2023-03-08T19:07:59.917Z,7.47
2023-03-08T19:10:32.910Z,12.93
2023-03-08T19:13:02.400Z,7.83
2023-03-08T19:15:31.432Z,7.70
2023-03-08T19:18:00.471Z,9.23
2023-03-08T19:20:30.079Z,7.23
2023-03-08T19:22:59.151Z,11.10
2023-03-08T19:25:30.940Z,5.60
2023-03-08T19:27:59.977Z,7.17
2023-03-08T19:30:29.479Z,8.37
2023-03-08T19:32:58.529Z,6.60
2023-03-08T19:35:27.543Z,9.27
2023-03-08T19:37:56.624Z,6.37
2023-03-08T19:40:26.717Z,6.87
2023-03-08T19:42:57.106Z,7.57
2023-03-08T19:45:26.275Z,9.50
2023-03-08T19:47:55.392Z,10.13
2023-03-08T19:50:24.390Z,10.00
2023-03-08T19:52:53.450Z,14.23
2023-03-08T19:55:22.462Z,11.33
2023-03-08T19:57:51.454Z,9.07
2023-03-08T20:00:22.587Z,7.67
2023-03-08T20:02:51.665Z,15.03
2023-03-08T20:05:21.645Z,10.60
2023-03-08T20:07:50.655Z,9.77
2023-03-08T20:10:19.889Z,7.80
2023-03-08T20:12:50.062Z,9.53
2023-03-08T20:15:19.144Z,8.00
2023-03-08T20:17:49.654Z,12.73
2023-03-08T20:20:19.154Z,11.53
2023-03-08T20:22:48.171Z,9.43
2023-03-08T20:25:17.735Z,8.87
2023-03-08T20:27:46.992Z,9.87
2023-03-08T20:30:16.359Z,10.97
2023-03-08T20:32:45.457Z,10.67
2023-03-08T20:35:16.091Z,7.43
2023-03-08T20:37:45.250Z,14.13
2023-03-08T20:40:16.603Z,8.80
2023-03-08T20:42:45.649Z,9.77
2023-03-08T20:45:15.148Z,8.53
2023-03-08T20:47:44.282Z,9.50
2023-03-08T20:50:15.108Z,15.17
2023-03-08T20:52:44.132Z,10.23
2023-03-08T20:55:13.329Z,8.90
2023-03-08T20:57:42.348Z,15.97
2023-03-08T21:00:13.610Z,11.97
2023-03-08T21:02:42.794Z,9.50
2023-03-08T21:05:12.369Z,13.43
2023-03-08T21:07:42.798Z,11.90
2023-03-08T21:10:12.450Z,10.80
2023-03-08T21:12:41.618Z,10.43
2023-03-08T21:15:12.056Z,9.13
2023-03-08T21:17:41.069Z,12.43
2023-03-08T21:20:11.799Z,7.30
2023-03-08T21:22:42.189Z,13.67
2023-03-08T21:25:12.092Z,11.67
2023-03-08T21:27:41.245Z,9.37
2023-03-08T21:30:12.934Z,13.57
2023-03-08T21:32:42.041Z,12.93
2023-03-08T21:35:11.816Z,9.63
2023-03-08T21:37:42.240Z,13.47
2023-03-08T21:40:12.524Z,8.00
2023-03-08T21:42:41.642Z,13.40
2023-03-08T21:45:11.493Z,15.33
2023-03-08T21:47:40.556Z,12.90
2023-03-08T21:50:10.388Z,14.83
2023-03-08T21:52:39.425Z,11.13
2023-03-08T21:55:10.567Z,11.17
2023-03-08T21:57:39.584Z,11.97
2023-03-08T22:00:11.422Z,9.67
2023-03-08T22:02:45.705Z,10.40
2023-03-08T22:05:15.091Z,8.40
2023-03-08T22:07:44.130Z,11.60
2023-03-08T22:10:15.919Z,10.23
2023-03-08T22:12:44.959Z,11.70
2023-03-08T22:15:15.611Z,8.10
2023-03-08T22:17:44.778Z,14.83
2023-03-08T22:20:14.083Z,12.37
2023-03-08T22:22:44.076Z,8.60
2023-03-08T22:25:14.609Z,9.43
2023-03-08T22:27:43.596Z,8.20
2023-03-08T22:30:13.605Z,8.17
2023-03-08T22:32:43.312Z,9.97
2023-03-08T22:35:13.557Z,8.97
2023-03-08T22:37:43.743Z,10.00
2023-03-08T22:40:15.083Z,10.27
2023-03-08T22:42:44.121Z,8.00
2023-03-08T22:45:14.150Z,6.53
2023-03-08T22:47:43.457Z,10.07
2023-03-08T22:50:13.448Z,8.53
2023-03-08T22:52:42.462Z,10.57
2023-03-08T22:55:13.730Z,8.07
2023-03-08T22:57:42.762Z,9.60
2023-03-08T23:00:15.182Z,7.90
2023-03-08T23:02:45.416Z,10.13
2023-03-08T23:05:16.014Z,6.87
2023-03-08T23:07:45.040Z,9.33
2023-03-08T23:10:17.785Z,9.93
2023-03-08T23:12:47.496Z,8.23
2023-03-08T23:15:16.496Z,7.63
2023-03-08T23:17:45.637Z,6.93
2023-03-08T23:20:15.032Z,9.47
2023-03-08T23:22:45.215Z,7.97
2023-03-08T23:25:15.771Z,7.63
2023-03-08T23:27:45.704Z,11.63
2023-03-08T23:30:18.437Z,4.43
2023-03-08T23:32:47.502Z,9.13
2023-03-08T23:35:16.638Z,6.83
2023-03-08T23:37:46.828Z,7.93
2023-03-08T23:40:17.993Z,6.43
2023-03-08T23:42:47.114Z,6.03
2023-03-08T23:45:16.144Z,5.07
2023-03-08T23:47:45.219Z,8.00
2023-03-08T23:50:14.253Z,9.50
2023-03-08T23:52:43.315Z,8.50
2023-03-08T23:55:13.258Z,6.20
2023-03-08T23:57:43.606Z,9.53
